Keyes Creek (350) Station Data

Red Flag Warning: No
Fire Weather Zone: 250
SDGE Region: North East
Lat/Lon: 33.313/-117.086

Observations

Time Wind Speed/Gust Temp(F) RH Fuel Moist Fuel Temp(F) Dewpt(F) Tmax(F) Tmin(F) Accum Precip 10-min Precip SL Press(mb)
6/27 5:00pm 295 2 G 6 85° 29% - - 49° 94.7° 60.7° - - -
6/27 4:50pm 320 2 G 7 86° 27% - - 48° 94.7° 60.7° - - -
6/27 4:40pm 315 2 G 7 86° 26% - - 47° 94.7° 60.7° - - -
6/27 4:30pm 328 4 G 7 87° 24% - - 46° 94.7° 60.7° - - -
6/27 4:20pm 320 3 G 7 87° 23% - - 45° 94.7° 60.7° - - -
6/27 4:10pm 318 3 G 8 87° 24% - - 46° 94.7° 60.7° - - -
6/27 4:00pm 262 3 G 7 87° 22% - - 44° 94.7° 60.7° - - -
6/27 3:50pm 313 3 G 8 87° 22% - - 44° 94.7° 60.7° - - -
6/27 3:40pm 316 3 G 8 87° 22% - - 44° 94.7° 60.7° - - -
6/27 3:30pm 274 3 G 7 88° 20% - - 43° 94.7° 60.7° - - -
6/27 3:20pm 281 3 G 8 89° 19% - - 41° 94.7° 60.7° - - -
6/27 3:10pm 307 3 G 8 89° 19% - - 42° 94.7° 60.7° - - -
6/27 3:00pm 313 3 G 8 89° 20% - - 43° 94.7° 60.7° - - -
6/27 2:50pm 294 3 G 7 89° 19% - - 42° 94.7° 60.7° - - -
6/27 2:40pm 286 2 G 6 90° 19% - - 42° 94.7° 60.7° - - -
6/27 2:30pm 278 3 G 8 89° 21% - - 44° 94.7° 60.7° - - -
6/27 2:20pm 285 3 G 9 89° 21% - - 44° 94.7° 60.7° - - -
6/27 2:10pm 276 3 G 7 90° 19% - - 42° 94.7° 60.7° - - -
6/27 2:00pm 301 3 G 10 91° 17% - - 41° 94.7° 60.7° - - -
6/27 1:50pm 303 3 G 10 92° 15% - - 38° 94.7° 60.7° - - -
6/27 1:40pm 289 3 G 7 92° 14% - - 37° 94.7° 60.7° - - -
6/27 1:30pm 301 3 G 8 92° 13% - - 34° 94.7° 60.7° - - -
6/27 1:20pm 276 2 G 8 92° 14% - - 36° 94.7° 60.7° - - -
6/27 1:10pm 245 3 G 9 92° 16% - - 39° 94.7° 60.7° - - -
6/27 1:00pm 259 2 G 7 93° 18% - - 42° 94.7° 60.7° - - -
6/27 12:50pm 266 3 G 8 93° 17% - - 42° 94.7° 60.7° - - -
6/27 12:40pm 298 3 G 7 93° 15% - - 38° 94.7° 60.7° - - -
6/27 12:30pm 310 2 G 8 93° 14% - - 37° 94.7° 60.7° - - -
6/27 12:20pm 271 3 G 8 93° 13% - - 36° 94.7° 60.7° - - -
6/27 12:10pm 277 2 G 7 94° 12% - - 33° 94.7° 60.7° - - -
6/27 12:00pm 254 2 G 7 94° 12% - - 34° 94.7° 60.7° - - -
6/27 11:50am 337 3 G 8 93° 12% - - 34° 93.7° 60.7° - - -
6/27 11:40am 299 3 G 7 93° 13% - - 34° 93.7° 60.7° - - -
6/27 11:30am 323 2 G 6 92° 13% - - 35° 93.1° 60.7° - - -
6/27 11:20am 329 3 G 8 92° 14% - - 35° 93.1° 60.7° - - -
6/27 11:10am 277 2 G 6 93° 14% - - 36° 93.1° 60.7° - - -
6/27 11:00am 320 2 G 6 92° 13% - - 34° 92.4° 60.7° - - -
6/27 10:50am 321 2 G 5 91° 13% - - 34° 92.1° 60.7° - - -
6/27 10:40am 304 2 G 6 90° 13% - - 33° 91° 60.7° - - -
6/27 10:30am 335 3 G 9 90° 13% - - 33° 90.8° 60.7° - - -
6/27 10:20am 359 3 G 6 89° 13% - - 32° 89.5° 60.7° - - -
6/27 10:10am 307 2 G 6 88° 14% - - 33° 89.5° 60.7° - - -
6/27 10:00am 333 3 G 8 88° 14% - - 33° 88.9° 60.7° - - -
6/27 9:50am 314 3 G 6 87° 17% - - 37° 88.9° 60.7° - - -
6/27 9:40am 296 2 G 4 88° 17% - - 37° 88.9° 60.7° - - -
6/27 9:30am 315 2 G 4 87° 17% - - 37° 88.4° 60.7° - - -
6/27 9:20am 262 2 G 5 88° 15% - - 35° 88.3° 60.7° - - -
6/27 9:10am 180 2 G 4 88° 11% - - 27° 87.9° 60.7° - - -
6/27 9:00am 172 2 G 4 87° 11% - - 26° 87.4° 60.7° - - -
6/27 8:50am 178 1 G 3 86° 12% - - 27° 87.2° 60.7° - - -
6/27 8:40am 182 1 G 3 86° 14% - - 31° 86.4° 60.7° - - -
6/27 8:30am 179 1 G 2 85° 17% - - 35° 84.9° 60.7° - - -
6/27 8:20am 188 0 G 1 83° 18% - - 36° 84° 60.7° - - -
6/27 8:10am 173 1 G 2 83° 21% - - 38° 83.6° 60.7° - - -
6/27 8:00am 62 1 G 2 82° 23% - - 40° 83.3° 60.7° - - -
6/27 7:50am 39 1 G 2 81° 24% - - 40° 81.7° 60.7° - - -
6/27 7:40am 24 1 G 2 79° 26% - - 41° 79.9° 60.7° - - -
6/27 7:30am 22 0 G 2 78° 29% - - 43° 78.4° 60.7° - - -
6/27 7:20am 26 0 G 1 75° 30% - - 41° 76.5° 60.7° - - -
6/27 7:10am 9 1 G 2 72° 29% - - 39° 73.3° 60.7° - - -
6/27 7:00am 359 1 G 3 71° 31% - - 38° 71.6° 60.7° - - -
6/27 6:50am 355 2 G 3 68° 31% - - 37° 69.2° 60.7° - - -
6/27 6:40am 359 3 G 4 66° 34% - - 36° 67.6° 60.7° - - -
6/27 6:30am 353 2 G 3 63° 36% - - 36° 67.6° 60.7° - - -
6/27 6:20am 359 3 G 3 61° 35% - - 34° 67.6° 60.7° - - -
6/27 6:10am 354 2 G 3 61° 35% - - 34° 67.6° 60.7° - - -
6/27 6:00am 356 2 G 3 61° 34% - - 33° 67.6° 60.7° - - -
6/27 5:50am 357 2 G 3 62° 33% - - 33° 67.6° 60.7° - - -
6/27 5:40am 355 2 G 3 61° 34% - - 33° 67.6° 60.7° - - -
6/27 5:30am 1 2 G 3 61° 35% - - 33° 67.6° 60.7° - - -
6/27 5:20am 355 1 G 2 63° 33% - - 34° 67.6° 60.9° - - -
6/27 5:10am 353 2 G 4 63° 35% - - 34° 67.6° 60.9° - - -
6/27 5:00am 355 2 G 4 63° 34% - - 34° 67.6° 60.9° - - -
6/27 4:50am 2 3 G 4 62° 37% - - 35° 67.6° 60.9° - - -
6/27 4:40am 356 2 G 4 62° 36% - - 35° 67.6° 60.9° - - -
6/27 4:30am 359 3 G 4 62° 37% - - 36° 67.6° 60.9° - - -
6/27 4:20am 356 2 G 3 62° 38% - - 36° 67.6° 60.9° - - -
6/27 4:10am 359 2 G 3 62° 38% - - 36° 67.6° 60.9° - - -
6/27 4:00am 353 2 G 3 62° 39% - - 37° 67.6° 61.4° - - -
6/27 3:50am 358 1 G 3 63° 39% - - 37° 67.6° 62° - - -
6/27 3:40am 347 1 G 3 64° 36% - - 37° 67.6° 62.6° - - -
6/27 3:30am 352 2 G 4 65° 35% - - 36° 67.6° 62.6° - - -
6/27 3:20am 346 2 G 4 64° 36% - - 36° 67.6° 62.6° - - -
6/27 3:10am 4 2 G 3 63° 37% - - 37° 67.6° 62.6° - - -
6/27 3:00am 356 2 G 3 65° 35% - - 37° 67.6° 63.2° - - -
6/27 2:50am 349 1 G 2 65° 35% - - 37° 67.6° 63.2° - - -
6/27 2:40am 356 2 G 3 65° 37% - - 38° 67.6° 63.2° - - -
6/27 2:30am 0 2 G 4 65° 38% - - 39° 67.6° 63.2° - - -
6/27 2:20am 356 2 G 4 65° 39% - - 40° 67.6° 63.2° - - -
6/27 2:10am 358 2 G 3 64° 42% - - 41° 67.6° 63.2° - - -
6/27 2:00am 356 2 G 3 64° 43% - - 41° 67.6° 63.2° - - -
6/27 1:50am 353 2 G 4 65° 43% - - 42° 67.6° 63.2° - - -
6/27 1:40am 2 2 G 4 64° 45% - - 43° 67.6° 63.2° - - -
6/27 1:30am 359 2 G 5 64° 46% - - 43° 67.6° 63.4° - - -
6/27 1:20am 2 2 G 3 64° 45% - - 42° 67.6° 63.8° - - -
6/27 1:10am 359 2 G 4 65° 45% - - 43° 67.6° 63.8° - - -
6/27 1:00am 355 2 G 3 65° 45% - - 43° 67.6° 64.2° - - -
6/27 12:50am 357 1 G 3 65° 45% - - 43° 67.6° 64.4° - - -
6/27 12:40am 1 2 G 3 65° 46% - - 44° 67.6° 64.4° - - -
6/27 12:30am 351 1 G 2 66° 44% - - 43° 67.6° 65.5° - - -
6/27 12:20am 357 2 G 3 66° 43% - - 43° 67.6° 66° - - -
6/27 12:10am 358 1 G 2 67° 42% - - 43° 67.6° 66.5° - - -
6/27 12:00am 354 1 G 3 68° 41% - - 43° 96.8° 63.4° - - -
6/26 11:50pm 1 3 G 4 66° 46% - - 45° 96.8° 63.4° - - -
6/26 11:40pm 2 2 G 3 66° 46% - - 45° 96.8° 63.4° - - -
6/26 11:30pm 359 2 G 3 67° 45% - - 45° 96.8° 63.4° - - -
6/26 11:20pm 356 2 G 3 67° 46% - - 46° 96.8° 63.4° - - -
6/26 11:10pm 1 2 G 3 66° 47% - - 46° 96.8° 63.4° - - -
6/26 11:00pm 4 2 G 3 66° 47% - - 45° 96.8° 63.4° - - -
6/26 10:50pm 355 1 G 3 66° 47% - - 46° 96.8° 63.4° - - -
6/26 10:40pm 351 1 G 2 67° 45% - - 46° 96.8° 63.4° - - -
6/26 10:30pm 351 1 G 3 68° 46% - - 46° 96.8° 63.4° - - -
6/26 10:20pm 0 2 G 3 67° 48% - - 47° 96.8° 63.4° - - -
6/26 10:10pm 357 1 G 2 68° 46% - - 46° 96.8° 63.4° - - -
6/26 10:00pm 352 1 G 3 69° 44% - - 46° 96.8° 63.4° - - -
6/26 9:50pm 355 2 G 2 69° 43% - - 46° 96.8° 63.4° - - -
6/26 9:40pm 1 1 G 3 70° 42% - - 46° 96.8° 63.4° - - -
6/26 9:30pm 353 2 G 3 71° 41% - - 46° 96.8° 63.4° - - -
6/26 9:20pm 353 2 G 3 71° 42% - - 47° 96.8° 63.4° - - -
6/26 9:10pm 358 2 G 3 71° 43% - - 47° 96.8° 63.4° - - -
6/26 9:00pm 355 1 G 3 72° 43% - - 48° 96.8° 63.4° - - -
6/26 8:50pm 349 0 G 1 72° 43% - - 48° 96.8° 63.4° - - -
6/26 8:40pm 355 1 G 2 73° 42% - - 49° 96.8° 63.4° - - -
6/26 8:30pm 342 0 G 1 74° 41% - - 49° 96.8° 63.4° - - -
6/26 8:20pm 357 1 G 2 75° 40% - - 49° 96.8° 63.4° - - -
6/26 8:10pm 20 0 G 1 76° 39% - - 49° 96.8° 63.4° - - -
6/26 8:00pm 340 0 G 1 77° 36% - - 48° 96.8° 63.4° - - -
6/26 7:50pm 351 1 G 3 78° 34% - - 47° 96.8° 63.4° - - -
6/26 7:40pm 335 0 G 2 80° 31% - - 47° 96.8° 63.4° - - -
6/26 7:30pm 351 1 G 1 81° 28% - - 45° 96.8° 63.4° - - -
6/26 7:20pm 225 0 G 1 83° 27% - - 46° 96.8° 63.4° - - -
6/26 7:10pm 244 0 G 1 86° 22% - - 42° 96.8° 63.4° - - -
6/26 7:00pm 236 0 G 2 89° 18% - - 39° 96.8° 63.4° - - -
6/26 6:50pm 282 1 G 3 90° 15% - - 35° 96.8° 63.4° - - -
6/26 6:40pm 352 2 G 6 90° 14% - - 34° 96.8° 63.4° - - -
6/26 6:30pm 342 2 G 5 91° 14% - - 34° 96.8° 63.4° - - -
6/26 6:20pm 326 1 G 4 91° 14% - - 36° 96.8° 63.4° - - -
6/26 6:10pm 339 2 G 5 91° 14% - - 35° 96.8° 63.4° - - -
6/26 6:00pm 241 2 G 6 92° 14% - - 35° 96.8° 63.4° - - -
6/26 5:50pm 282 1 G 3 93° 14% - - 36° 96.8° 63.4° - - -
6/26 5:40pm 279 1 G 6 93° 14% - - 36° 96.8° 63.4° - - -
6/26 5:30pm 217 2 G 5 93° 14% - - 36° 96.8° 63.4° - - -
6/26 5:20pm 223 2 G 5 93° 13% - - 35° 96.8° 63.4° - - -
6/26 5:10pm 243 2 G 5 94° 12% - - 34° 96.8° 63.4° - - -
6/26 5:00pm 228 2 G 5 94° 13% - - 35° 96.8° 63.4° - - -
6/26 4:50pm 240 2 G 5 94° 12% - - 35° 96.8° 63.4° - - -
6/26 4:40pm 245 2 G 6 94° 13% - - 35° 96.8° 63.4° - - -
6/26 4:30pm 209 2 G 6 95° 13% - - 36° 96.8° 63.4° - - -
6/26 4:20pm 232 3 G 7 94° 14% - - 38° 96.8° 63.4° - - -
6/26 4:10pm 249 2 G 6 95° 16% - - 41° 96.8° 63.4° - - -
6/26 4:00pm 262 3 G 6 94° 16% - - 40° 96.8° 63.4° - - -
6/26 3:50pm 253 3 G 7 95° 14% - - 37° 96.8° 63.4° - - -
6/26 3:40pm 229 3 G 7 95° 15% - - 40° 96.8° 63.4° - - -
6/26 3:30pm 216 3 G 5 95° 16% - - 41° 96.8° 63.4° - - -
6/26 3:20pm 236 2 G 7 95° 16% - - 43° 96.8° 63.4° - - -
6/26 3:10pm 225 3 G 6 95° 17% - - 44° 96.8° 63.4° - - -
6/26 3:00pm 287 2 G 5 94° 17% - - 43° 96.8° 63.4° - - -
6/26 2:50pm 186 2 G 5 95° 19% - - 46° 96.8° 63.4° - - -
6/26 2:40pm 315 2 G 6 94° 21% - - 48° 96.8° 63.4° - - -
6/26 2:30pm 350 3 G 7 94° 21% - - 49° 96.8° 63.4° - - -
6/26 2:20pm 351 2 G 7 94° 22% - - 50° 96.8° 63.4° - - -
6/26 2:10pm 307 3 G 6 94° 23% - - 50° 96.8° 63.4° - - -
6/26 2:00pm 207 2 G 7 94° 23% - - 50° 96.8° 63.4° - - -
6/26 1:50pm 292 2 G 7 94° 22% - - 49° 96.8° 63.4° - - -
6/26 1:40pm 278 2 G 5 93° 22% - - 49° 96.8° 63.4° - - -
6/26 1:30pm 277 3 G 5 93° 22% - - 49° 96.8° 63.4° - - -
6/26 1:20pm 317 2 G 7 94° 23% - - 50° 96.8° 63.4° - - -
6/26 1:10pm 326 3 G 8 93° 23% - - 50° 96.8° 63.4° - - -
6/26 1:00pm 271 3 G 6 94° 21% - - 47° 96.8° 63.4° - - -
6/26 12:50pm 304 3 G 6 95° 18% - - 44° 96.8° 63.4° - - -
6/26 12:40pm 302 2 G 7 95° 18% - - 45° 96.8° 63.4° - - -
6/26 12:30pm 296 2 G 7 95° 18% - - 45° 96.8° 63.4° - - -
6/26 12:20pm 270 2 G 5 95° 19% - - 47° 96.8° 63.4° - - -
6/26 12:10pm 293 3 G 7 95° 21% - - 49° 96.8° 63.4° - - -
6/26 12:00pm 339 3 G 9 95° 20% - - 47° 96.8° 63.4° - - -
6/26 11:50am 281 3 G 7 94° 22% - - 50° 96.8° 63.4° - - -
6/26 11:40am 299 2 G 6 94° 23% - - 50° 96.8° 63.4° - - -
6/26 11:30am 327 3 G 10 94° 21% - - 49° 96.8° 63.4° - - -
6/26 11:20am 308 2 G 6 95° 21% - - 49° 96.8° 63.4° - - -
6/26 11:10am 288 3 G 7 95° 21% - - 49° 96.8° 63.4° - - -
6/26 11:00am 332 3 G 7 95° 22% - - 50° 96.8° 63.4° - - -
6/26 10:50am 344 4 G 8 95° 21% - - 49° 96.8° 63.4° - - -
6/26 10:40am 316 3 G 6 95° 21% - - 49° 96.8° 63.4° - - -
6/26 10:30am 313 2 G 6 95° 19% - - 47° 96.8° 63.4° - - -
6/26 10:20am 298 2 G 6 96° 18% - - 46° 96.8° 63.4° - - -
6/26 10:10am 255 1 G 3 96° 18% - - 46° 96.5° 63.4° - - -
6/26 10:00am 323 1 G 4 96° 17% - - 44° 96.5° 63.4° - - -
6/26 9:50am 162 2 G 4 95° 14% - - 38° 95.6° 63.4° - - -
6/26 9:40am 149 2 G 5 94° 14% - - 37° 94.3° 63.4° - - -
6/26 9:30am 152 2 G 4 93° 14% - - 37° 93.8° 63.4° - - -
6/26 9:20am 154 2 G 4 92° 16% - - 40° 92.1° 63.4° - - -
6/26 9:10am 168 2 G 4 91° 19% - - 44° 91.3° 63.4° - - -
6/26 9:00am 174 2 G 4 90° 19% - - 43° 90.9° 63.4° - - -
6/26 8:50am 170 2 G 3 90° 21% - - 45° 90.3° 63.4° - - -
6/26 8:40am 156 1 G 2 90° 23% - - 47° 89.9° 63.4° - - -
6/26 8:30am 171 0 G 1 88° 25% - - 48° 89.6° 63.4° - - -
6/26 8:20am 183 1 G 1 87° 26% - - 48° 87.7° 63.4° - - -
6/26 8:10am 179 0 G 1 84° 33% - - 52° 85.5° 63.4° - - -
6/26 8:00am 181 1 G 2 82° 32% - - 49° 85.3° 63.4° - - -
6/26 7:50am 183 1 G 2 84° 34% - - 52° 85.3° 63.4° - - -
6/26 7:40am 349 0 G 1 82° 31% - - 48° 83.5° 63.4° - - -
6/26 7:30am 349 1 G 3 80° 38% - - 52° 81° 63.4° - - -
6/26 7:20am 0 1 G 2 77° 41% - - 52° 78.9° 63.4° - - -
6/26 7:10am 8 1 G 2 75° 44% - - 52° 76° 63.4° - - -
6/26 7:00am 9 0 G 2 74° 46% - - 52° 74.7° 63.4° - - -
6/26 6:50am 346 0 G 1 73° 43% - - 50° 74° 63.4° - - -
6/26 6:40am 354 0 G 2 73° 42% - - 49° 73.7° 63.4° - - -
6/26 6:30am 331 1 G 2 71° 42% - - 47° 72.9° 63.4° - - -
6/26 6:20am 348 1 G 4 66° 50% - - 47° 68.8° 63.4° - - -
6/26 6:10am 0 3 G 3 65° 58% - - 49° 68.8° 63.4° - - -
6/26 6:00am 4 3 G 4 64° 59% - - 50° 68.8° 63.4° - - -